createdAt,value
2018-12-20T00:01:11.815Z,100256.70
2018-12-20T00:03:39.393Z,100258.40
2018-12-20T00:06:07.041Z,100256.30
2018-12-20T00:08:34.565Z,100254.59
2018-12-20T00:11:02.096Z,100256.69
2018-12-20T00:13:29.740Z,100254.17
2018-12-20T00:15:57.297Z,100249.11
2018-12-20T00:18:24.987Z,100234.72
2018-12-20T00:20:52.555Z,100241.49
2018-12-20T00:23:20.272Z,100233.47
2018-12-20T00:25:47.826Z,100233.88
2018-12-20T00:28:15.373Z,100235.59
2018-12-20T00:30:43.208Z,100231.36
2018-12-20T00:33:10.867Z,100233.05
2018-12-20T00:35:38.556Z,100232.22
2018-12-20T00:38:06.643Z,100232.66
2018-12-20T00:40:34.239Z,100227.14
2018-12-20T00:43:01.923Z,100225.86
2018-12-20T00:45:29.694Z,100224.59
2018-12-20T00:47:57.212Z,100222.05
2018-12-20T00:50:24.884Z,100225.42
2018-12-20T00:52:52.485Z,100221.21
2018-12-20T00:55:20.040Z,100226.69
2018-12-20T00:57:47.704Z,100224.59
2018-12-20T01:00:15.272Z,100227.98
2018-12-20T01:02:44.312Z,100227.55
2018-12-20T01:05:12.574Z,100236.02
2018-12-20T01:07:40.160Z,100230.11
2018-12-20T01:10:07.755Z,100235.61
2018-12-20T01:12:35.586Z,100237.30
2018-12-20T01:15:05.189Z,100234.75
2018-12-20T01:17:39.076Z,100236.02
2018-12-20T01:20:08.807Z,100240.24
2018-12-20T01:22:36.838Z,100242.37
2018-12-20T01:25:04.910Z,100249.95
2018-12-20T01:27:32.713Z,100252.07
2018-12-20T01:30:00.252Z,100250.36
2018-12-20T01:32:28.313Z,100248.24
2018-12-20T01:34:55.957Z,100249.11
2018-12-20T01:37:23.555Z,100247.84
2018-12-20T01:39:51.124Z,100252.06
2018-12-20T01:42:18.644Z,100253.73
2018-12-20T01:44:53.369Z,100255.00
2018-12-20T01:47:15.881Z,100245.70
2018-12-20T01:49:43.459Z,100246.54
2018-12-20T01:52:11.123Z,100246.98
2018-12-20T01:54:38.699Z,100244.45
2018-12-20T01:57:06.195Z,100244.45
2018-12-20T01:59:33.791Z,100245.70
2018-12-20T02:02:01.485Z,100242.74
2018-12-20T02:04:29.185Z,100245.67
2018-12-20T02:06:56.957Z,100239.77
2018-12-20T02:09:24.752Z,100246.98
2018-12-20T02:11:52.417Z,100241.05
2018-12-20T02:14:19.960Z,100233.42
2018-12-20T02:16:47.434Z,100237.24
2018-12-20T02:19:14.961Z,100237.64
2018-12-20T02:21:43.044Z,100237.65
2018-12-20T02:24:10.757Z,100235.94
2018-12-20T02:26:38.253Z,100235.94
2018-12-20T02:29:05.849Z,100231.70
2018-12-20T02:31:33.578Z,100235.92
2018-12-20T02:34:01.341Z,100232.56
2018-12-20T02:36:30.158Z,100229.59
2018-12-20T02:38:57.820Z,100228.75
2018-12-20T02:41:25.688Z,100222.83
2018-12-20T02:43:53.648Z,100221.53
2018-12-20T02:46:21.289Z,100219.41
2018-12-20T02:48:48.974Z,100219.02
2018-12-20T02:51:16.775Z,100215.61
2018-12-20T02:53:44.395Z,100212.23
2018-12-20T02:56:12.349Z,100215.61
2018-12-20T02:58:39.993Z,100217.73
2018-12-20T03:01:07.581Z,100213.47
2018-12-20T03:03:35.227Z,100202.94
2018-12-20T03:06:02.939Z,100210.95
2018-12-20T03:08:31.334Z,100209.27
2018-12-20T03:10:59.300Z,100203.36
2018-12-20T03:13:26.932Z,100205.03
2018-12-20T03:15:54.886Z,100199.55
2018-12-20T03:18:22.550Z,100204.20
2018-12-20T03:20:50.242Z,100199.55
2018-12-20T03:23:17.879Z,100196.58
2018-12-20T03:25:45.517Z,100189.39
2018-12-20T03:28:13.143Z,100197.83
2018-12-20T03:30:40.701Z,100193.56
2018-12-20T03:33:10.481Z,100189.80
2018-12-20T03:35:38.230Z,100189.78
2018-12-20T03:38:05.853Z,100181.33
2018-12-20T03:40:34.462Z,100180.05
2018-12-20T03:43:02.390Z,100181.31
2018-12-20T03:45:30.103Z,100183.86
2018-12-20T03:47:57.720Z,100184.30
2018-12-20T03:50:25.964Z,100191.90
2018-12-20T03:52:53.593Z,100187.27
2018-12-20T03:55:21.462Z,100184.31
2018-12-20T03:57:49.249Z,100184.72
2018-12-20T04:00:17.257Z,100192.34
2018-12-20T04:02:45.079Z,100190.23
2018-12-20T04:05:12.641Z,100188.53
2018-12-20T04:07:40.667Z,100190.25
2018-12-20T04:10:08.223Z,100185.61
2018-12-20T04:12:35.727Z,100182.23
2018-12-20T04:15:03.477Z,100183.50
2018-12-20T04:17:32.077Z,100188.56
2018-12-20T04:19:59.620Z,100184.35
2018-12-20T04:22:27.726Z,100182.25
2018-12-20T04:24:55.215Z,100186.45
2018-12-20T04:27:22.848Z,100184.77
2018-12-20T04:29:50.370Z,100183.50
2018-12-20T04:32:18.510Z,100178.02
2018-12-20T04:34:46.105Z,100175.07
2018-12-20T04:37:14.255Z,100171.66
2018-12-20T04:39:42.606Z,100174.22
2018-12-20T04:42:10.164Z,100180.11
2018-12-20T04:44:37.837Z,100182.23
2018-12-20T04:47:05.509Z,100178.88
2018-12-20T04:49:33.150Z,100178.88
2018-12-20T04:52:01.021Z,100178.86
2018-12-20T04:54:28.683Z,100177.58
2018-12-20T04:56:56.562Z,100178.44
2018-12-20T04:59:24.860Z,100173.36
2018-12-20T05:01:52.626Z,100179.28
2018-12-20T05:04:20.543Z,100184.79
2018-12-20T05:06:48.084Z,100179.72
2018-12-20T05:09:15.586Z,100174.22
2018-12-20T05:11:43.357Z,100175.52
2018-12-20T05:14:11.627Z,100175.08
2018-12-20T05:16:40.179Z,100177.20
2018-12-20T05:19:07.814Z,100175.49
2018-12-20T05:21:35.556Z,100177.19
2018-12-20T05:24:04.128Z,100177.59
2018-12-20T05:26:31.673Z,100180.11
2018-12-20T05:28:59.254Z,100183.89
2018-12-20T05:31:26.885Z,100174.59
2018-12-20T05:33:54.515Z,100180.94
2018-12-20T05:36:24.295Z,100182.61
2018-12-20T05:38:51.545Z,100181.33
2018-12-20T05:41:19.067Z,100177.14
2018-12-20T05:43:46.656Z,100169.52
2018-12-20T05:46:14.647Z,100180.55
2018-12-20T05:48:42.324Z,100181.36
2018-12-20T05:51:10.073Z,100180.53
2018-12-20T05:53:37.623Z,100181.38
2018-12-20T05:56:05.318Z,100178.84
2018-12-20T05:58:32.944Z,100178.84
2018-12-20T06:01:00.562Z,100178.84
2018-12-20T06:03:43.365Z,100179.69
2018-12-20T06:06:10.951Z,100176.72
2018-12-20T06:08:41.894Z,100180.51
2018-12-20T06:11:10.014Z,100178.41
2018-12-20T06:13:37.485Z,100177.96
2018-12-20T06:16:12.473Z,100177.14
2018-12-20T06:18:34.423Z,100176.31
2018-12-20T06:21:02.221Z,100173.39
2018-12-20T06:23:30.017Z,100180.98
2018-12-20T06:25:58.387Z,100192.41
2018-12-20T06:28:25.851Z,100191.11
2018-12-20T06:30:53.288Z,100197.05
2018-12-20T06:33:21.441Z,100191.55
2018-12-20T06:35:48.901Z,100189.87
2018-12-20T06:38:16.375Z,100194.98
2018-12-20T06:40:43.841Z,100193.75
2018-12-20T06:43:11.308Z,100190.38
2018-12-20T06:45:38.750Z,100192.47
2018-12-20T06:48:06.217Z,100191.23
2018-12-20T06:50:34.329Z,100189.95
2018-12-20T06:53:01.794Z,100197.56
2018-12-20T06:55:29.279Z,100195.88
2018-12-20T06:57:56.762Z,100195.88
2018-12-20T07:00:24.240Z,100202.66
2018-12-20T07:02:51.715Z,100206.47
2018-12-20T07:05:22.126Z,100209.41
2018-12-20T07:07:49.580Z,100208.58
2018-12-20T07:10:17.110Z,100200.98
2018-12-20T07:12:44.612Z,100203.95
2018-12-20T07:15:12.113Z,100195.91
2018-12-20T07:17:39.649Z,100189.55
2018-12-20T07:20:07.358Z,100187.87
2018-12-20T07:22:34.840Z,100194.62
2018-12-20T07:25:02.343Z,100195.89
2018-12-20T07:27:29.837Z,100192.94
2018-12-20T07:29:57.302Z,100203.94
2018-12-20T07:32:25.243Z,100203.52
2018-12-20T07:34:53.100Z,100211.95
2018-12-20T07:37:20.585Z,100213.64
2018-12-20T07:39:48.049Z,100222.97
2018-12-20T07:42:15.527Z,100219.58
2018-12-20T07:44:43.003Z,100211.96
2018-12-20T07:47:10.467Z,100214.88
2018-12-20T07:49:37.928Z,100212.34
2018-12-20T07:52:05.399Z,100214.41
2018-12-20T07:54:32.902Z,100214.00
2018-12-20T07:57:00.471Z,100208.48
2018-12-20T07:59:27.955Z,100205.95
2018-12-20T08:01:55.393Z,100211.82
2018-12-20T08:04:23.170Z,100208.86
2018-12-20T08:06:50.612Z,100207.63
2018-12-20T08:09:18.071Z,100206.36
2018-12-20T08:11:45.518Z,100212.27
2018-12-20T08:14:13.048Z,100209.74
2018-12-20T08:16:46.056Z,100207.21
2018-12-20T08:19:10.052Z,100216.09
2018-12-20T08:21:37.531Z,100217.76
2018-12-20T08:24:05.007Z,100211.42
2018-12-20T08:26:32.652Z,100211.03
2018-12-20T08:29:00.123Z,100211.89
2018-12-20T08:31:27.991Z,100215.69
2018-12-20T08:33:55.437Z,100213.57
2018-12-20T08:36:22.900Z,100219.93
2018-12-20T08:38:50.385Z,100214.04
2018-12-20T08:41:17.943Z,100226.30
2018-12-20T08:43:45.399Z,100219.97
2018-12-20T08:46:12.856Z,100226.32
2018-12-20T08:48:40.315Z,100223.78
2018-12-20T08:51:07.773Z,100227.61
2018-12-20T08:53:35.209Z,100224.23
2018-12-20T08:56:02.676Z,100222.12
2018-12-20T08:58:30.143Z,100223.83
2018-12-20T09:00:57.591Z,100222.12
2018-12-20T09:03:25.034Z,100215.38
2018-12-20T09:05:52.509Z,100216.23
2018-12-20T09:08:20.033Z,100220.88
2018-12-20T09:10:48.316Z,100216.23
2018-12-20T09:13:15.782Z,100220.02
2018-12-20T09:15:43.236Z,100225.09
2018-12-20T09:18:10.812Z,100222.56
2018-12-20T09:20:38.307Z,100226.77
2018-12-20T09:23:06.184Z,100222.98
2018-12-20T09:25:34.247Z,100230.19
2018-12-20T09:28:01.696Z,100228.08
2018-12-20T09:30:30.680Z,100231.86
2018-12-20T09:32:58.688Z,100229.30
2018-12-20T09:35:26.191Z,100228.88
2018-12-20T09:37:53.678Z,100231.83
2018-12-20T09:40:27.956Z,100230.15
2018-12-20T09:42:55.422Z,100225.45
2018-12-20T09:45:22.869Z,100226.28
2018-12-20T09:47:53.629Z,100229.24
2018-12-20T09:50:21.153Z,100231.77
2018-12-20T09:52:48.681Z,100234.69
2018-12-20T09:55:16.140Z,100230.86
2018-12-20T09:57:43.589Z,100233.81
2018-12-20T10:00:11.229Z,100227.46
2018-12-20T10:02:39.584Z,100226.62
2018-12-20T10:05:07.134Z,100223.64
2018-12-20T10:07:34.607Z,100227.45
2018-12-20T10:10:02.072Z,100218.12
2018-12-20T10:12:29.576Z,100216.80
2018-12-20T10:14:57.030Z,100214.64
2018-12-20T10:17:24.504Z,100211.66
2018-12-20T10:19:51.958Z,100209.12
2018-12-20T10:22:19.441Z,100213.80
2018-12-20T10:24:46.929Z,100209.55
2018-12-20T10:27:14.392Z,100214.20
2018-12-20T10:29:41.904Z,100207.44
2018-12-20T10:32:09.418Z,100207.41
2018-12-20T10:34:36.875Z,100205.30
2018-12-20T10:37:04.344Z,100204.06
2018-12-20T10:39:31.876Z,100195.56
2018-12-20T10:41:59.357Z,100193.02
2018-12-20T10:44:26.829Z,100189.61
2018-12-20T10:46:56.283Z,100190.41
2018-12-20T10:49:23.758Z,100187.80
2018-12-20T10:51:52.010Z,100180.97
2018-12-20T10:54:19.466Z,100180.45
2018-12-20T10:56:46.931Z,100177.81
2018-12-20T10:59:14.426Z,100179.83
2018-12-20T11:01:46.686Z,100180.17
2018-12-20T11:04:19.861Z,100182.22
2018-12-20T11:06:52.941Z,100172.44
2018-12-20T11:09:25.896Z,100173.27
2018-12-20T11:11:58.893Z,100171.55
2018-12-20T11:14:26.353Z,100166.41
2018-12-20T11:16:53.833Z,100166.80
2018-12-20T11:19:21.312Z,100165.97
2018-12-20T11:21:49.170Z,100163.81
2018-12-20T11:24:16.633Z,100157.86
2018-12-20T11:26:44.085Z,100157.38
2018-12-20T11:29:11.562Z,100159.48
2018-12-20T11:31:39.040Z,100155.65
2018-12-20T11:34:06.489Z,100154.77
2018-12-20T11:36:34.772Z,100156.05
2018-12-20T11:39:08.311Z,100156.47
2018-12-20T11:41:34.191Z,100153.50
2018-12-20T11:44:01.711Z,100149.28
2018-12-20T11:46:29.309Z,100153.05
2018-12-20T11:48:56.851Z,100142.47
2018-12-20T11:51:24.328Z,100150.55
2018-12-20T11:53:51.799Z,100149.67
2018-12-20T11:56:19.261Z,100146.75
2018-12-20T11:58:46.716Z,100145.53
2018-12-20T12:01:14.187Z,100149.80
2018-12-20T12:03:41.660Z,100140.48
2018-12-20T12:06:09.139Z,100140.16
2018-12-20T12:08:36.590Z,100147.30
2018-12-20T12:11:04.045Z,100138.83
2018-12-20T12:13:32.054Z,100138.84
2018-12-20T12:16:00.865Z,100146.03
2018-12-20T12:18:28.336Z,100138.83
2018-12-20T12:20:55.777Z,100143.48
2018-12-20T12:23:23.278Z,100142.66
2018-12-20T12:25:50.763Z,100144.81
2018-12-20T12:28:18.232Z,100141.87
2018-12-20T12:30:45.688Z,100131.79
2018-12-20T12:33:13.155Z,100139.42
2018-12-20T12:35:40.596Z,100142.43
2018-12-20T12:38:08.079Z,100141.58
2018-12-20T12:40:36.085Z,100141.59
2018-12-20T12:43:03.607Z,100133.52
2018-12-20T12:45:31.067Z,100136.50
2018-12-20T12:48:03.759Z,100142.48
2018-12-20T12:50:29.984Z,100142.13
2018-12-20T12:52:57.432Z,100133.66
2018-12-20T12:55:24.880Z,100144.67
2018-12-20T12:57:52.350Z,100142.17
2018-12-20T13:00:21.991Z,100146.87
2018-12-20T13:02:49.493Z,100147.70
2018-12-20T13:05:17.411Z,100144.28
2018-12-20T13:07:44.860Z,100150.64
2018-12-20T13:10:12.377Z,100139.23
2018-12-20T13:12:39.908Z,100143.89
2018-12-20T13:15:10.405Z,100130.73
2018-12-20T13:17:38.013Z,100144.33
2018-12-20T13:20:08.511Z,100141.83
2018-12-20T13:22:35.958Z,100144.34
2018-12-20T13:25:04.199Z,100147.75
2018-12-20T13:27:31.719Z,100145.60
2018-12-20T13:29:59.190Z,100141.39
2018-12-20T13:32:26.679Z,100141.39
2018-12-20T13:34:54.145Z,100148.98
2018-12-20T13:37:21.598Z,100147.72
2018-12-20T13:39:49.614Z,100152.41
2018-12-20T13:42:17.080Z,100151.97
2018-12-20T13:44:44.606Z,100150.26
2018-12-20T13:47:12.849Z,100152.80
2018-12-20T13:49:40.366Z,100156.17
2018-12-20T13:52:07.920Z,100154.52
2018-12-20T13:54:35.936Z,100154.95
2018-12-20T13:57:03.375Z,100153.24
2018-12-20T13:59:31.603Z,100158.77
2018-12-20T14:01:59.202Z,100159.20
2018-12-20T14:04:26.764Z,100156.17
2018-12-20T14:06:54.269Z,100158.72
2018-12-20T14:09:21.794Z,100157.45
2018-12-20T14:11:49.355Z,100158.72
2018-12-20T14:14:16.927Z,100159.55
2018-12-20T14:16:45.259Z,100159.55
2018-12-20T14:19:12.847Z,100156.61
2018-12-20T14:21:40.404Z,100160.83
2018-12-20T14:24:07.979Z,100162.09
2018-12-20T14:26:35.541Z,100159.55
2018-12-20T14:29:03.094Z,100162.09
2018-12-20T14:31:30.666Z,100161.70
2018-12-20T14:33:58.168Z,100162.15
2018-12-20T14:36:26.694Z,100160.88
2018-12-20T14:38:54.171Z,100165.13
2018-12-20T14:41:21.803Z,100162.14
2018-12-20T14:43:49.565Z,100160.83
2018-12-20T14:46:17.089Z,100158.29
2018-12-20T14:48:44.612Z,100158.33
2018-12-20T14:51:12.706Z,100154.12
2018-12-20T14:53:40.239Z,100160.00
2018-12-20T14:56:07.893Z,100154.95
2018-12-20T14:58:35.391Z,100160.04
2018-12-20T15:01:03.038Z,100164.69
2018-12-20T15:03:30.676Z,100160.88
2018-12-20T15:05:59.212Z,100164.25
2018-12-20T15:08:27.071Z,100167.24
2018-12-20T15:10:54.801Z,100174.48
2018-12-20T15:13:22.270Z,100168.95
2018-12-20T15:15:49.805Z,100166.36
2018-12-20T15:18:17.360Z,100176.98
2018-12-20T15:20:44.878Z,100172.77
2018-12-20T15:23:12.386Z,100181.67
2018-12-20T15:25:39.909Z,100177.45
2018-12-20T15:28:07.517Z,100174.52
2018-12-20T15:30:35.075Z,100178.34
2018-12-20T15:33:03.325Z,100179.58
2018-12-20T15:35:30.895Z,100177.90
2018-12-20T15:37:58.380Z,100175.39
2018-12-20T15:40:26.139Z,100176.63
2018-12-20T15:42:54.486Z,100180.05
2018-12-20T15:45:31.342Z,100179.25
2018-12-20T15:47:59.010Z,100176.74
2018-12-20T15:50:26.925Z,100180.13
2018-12-20T15:52:54.454Z,100175.91
2018-12-20T15:55:21.968Z,100178.89
2018-12-20T15:57:49.503Z,100176.78
2018-12-20T16:00:17.023Z,100179.73
2018-12-20T16:02:44.526Z,100173.00
2018-12-20T16:05:12.285Z,100184.05
2018-12-20T16:07:40.532Z,100184.45
2018-12-20T16:10:08.617Z,100186.59
2018-12-20T16:12:36.131Z,100184.45
2018-12-20T16:15:04.407Z,100188.27
2018-12-20T16:17:31.992Z,100184.92
2018-12-20T16:19:59.491Z,100186.59
2018-12-20T16:22:28.051Z,100177.69
2018-12-20T16:24:55.510Z,100180.67
2018-12-20T16:27:23.267Z,100184.09
2018-12-20T16:29:50.780Z,100186.69
2018-12-20T16:32:18.325Z,100182.41
2018-12-20T16:34:45.877Z,100181.61
2018-12-20T16:37:13.618Z,100188.80
2018-12-20T16:39:42.544Z,100193.45
2018-12-20T16:42:10.677Z,100201.08
2018-12-20T16:44:38.161Z,100194.29
2018-12-20T16:47:05.625Z,100190.11
2018-12-20T16:49:33.768Z,100199.84
2018-12-20T16:52:01.245Z,100196.40
2018-12-20T16:54:29.725Z,100192.62
2018-12-20T16:56:57.318Z,100198.54
2018-12-20T16:59:24.799Z,100193.02
2018-12-20T17:01:52.501Z,100195.16
2018-12-20T17:04:19.954Z,100192.62
2018-12-20T17:06:47.413Z,100193.05
2018-12-20T17:09:18.730Z,100193.45
2018-12-20T17:11:46.350Z,100194.69
2018-12-20T17:14:14.003Z,100196.40
2018-12-20T17:16:41.665Z,100198.11
2018-12-20T17:19:09.615Z,100201.89
2018-12-20T17:21:37.121Z,100195.53
2018-12-20T17:24:06.014Z,100197.67
2018-12-20T17:26:35.186Z,100192.55
2018-12-20T17:29:02.819Z,100190.04
2018-12-20T17:31:30.432Z,100196.80
2018-12-20T17:33:58.055Z,100195.50
2018-12-20T17:36:25.611Z,100198.05
2018-12-20T17:38:53.119Z,100195.56
2018-12-20T17:41:21.677Z,100197.20
2018-12-20T17:43:49.205Z,100204.40
2018-12-20T17:46:16.693Z,100195.12
2018-12-20T17:48:44.237Z,100188.80
2018-12-20T17:51:13.132Z,100189.64
2018-12-20T17:53:42.734Z,100194.32
2018-12-20T17:56:10.277Z,100193.08
2018-12-20T17:58:38.588Z,100189.70
2018-12-20T18:01:06.057Z,100186.78
2018-12-20T18:03:33.609Z,100196.95
2018-12-20T18:06:01.240Z,100193.97
2018-12-20T18:08:28.758Z,100191.83
2018-12-20T18:10:56.314Z,100195.22
2018-12-20T18:13:23.833Z,100191.80
2018-12-20T18:15:51.305Z,100189.70
2018-12-20T18:18:18.868Z,100192.24
2018-12-20T18:20:46.469Z,100197.33
2018-12-20T18:23:14.268Z,100199.03
2018-12-20T18:25:42.709Z,100197.33
2018-12-20T18:28:10.238Z,100194.75
2018-12-20T18:30:37.872Z,100207.44
2018-12-20T18:33:05.439Z,100200.25
2018-12-20T18:35:33.081Z,100194.76
2018-12-20T18:38:00.608Z,100200.68
2018-12-20T18:40:29.640Z,100197.70
2018-12-20T18:42:57.202Z,100193.86
2018-12-20T18:45:25.065Z,100201.52
2018-12-20T18:47:52.597Z,100193.89
2018-12-20T18:50:20.102Z,100197.70
2018-12-20T18:52:47.659Z,100202.76
2018-12-20T18:55:15.731Z,100195.56
2018-12-20T18:57:43.291Z,100202.82
2018-12-20T19:00:10.980Z,100203.63
2018-12-20T19:02:38.501Z,100204.09
2018-12-20T19:05:06.707Z,100201.98
2018-12-20T19:07:34.339Z,100201.55
2018-12-20T19:10:01.877Z,100199.41
2018-12-20T19:12:29.453Z,100204.52
2018-12-20T19:14:56.989Z,100200.27
2018-12-20T19:17:24.512Z,100200.66
2018-12-20T19:19:56.347Z,100200.22
2018-12-20T19:22:22.910Z,100202.26
2018-12-20T19:24:50.751Z,100202.30
2018-12-20T19:27:18.357Z,100202.70
2018-12-20T19:29:46.573Z,100200.59
2018-12-20T19:32:14.558Z,100199.72
2018-12-20T19:34:42.142Z,100198.44
2018-12-20T19:37:10.581Z,100200.52
2018-12-20T19:39:38.184Z,100206.04
2018-12-20T19:42:07.752Z,100202.26
2018-12-20T19:44:35.376Z,100199.72
2018-12-20T19:47:02.989Z,100190.81
2018-12-20T19:49:30.597Z,100190.41
2018-12-20T19:51:58.167Z,100195.91
2018-12-20T19:54:25.673Z,100190.41
2018-12-20T19:56:53.223Z,100193.02
2018-12-20T19:59:20.804Z,100187.50
2018-12-20T20:01:48.305Z,100191.75
2018-12-20T20:04:16.574Z,100193.89
2018-12-20T20:06:45.042Z,100195.56
2018-12-20T20:09:12.572Z,100190.07
2018-12-20T20:11:40.422Z,100191.31
2018-12-20T20:14:07.973Z,100190.91
2018-12-20T20:16:35.465Z,100190.07
2018-12-20T20:19:03.000Z,100189.23
2018-12-20T20:21:30.560Z,100184.55
2018-12-20T20:23:58.127Z,100185.83
2018-12-20T20:26:25.709Z,100186.66
2018-12-20T20:28:54.179Z,100188.80
2018-12-20T20:31:21.736Z,100183.72
2018-12-20T20:33:49.242Z,100189.20
2018-12-20T20:36:16.797Z,100194.29
2018-12-20T20:38:44.390Z,100187.50
2018-12-20T20:41:12.180Z,100184.09
2018-12-20T20:43:39.772Z,100186.23
2018-12-20T20:46:07.326Z,100182.38
2018-12-20T20:48:35.574Z,100188.30
2018-12-20T20:51:03.088Z,100180.73
2018-12-20T20:53:31.349Z,100185.39
2018-12-20T20:55:58.859Z,100184.52
2018-12-20T20:58:26.319Z,100185.39
2018-12-20T21:00:53.789Z,100184.55
2018-12-20T21:03:21.237Z,100180.33
2018-12-20T21:05:48.732Z,100178.19
2018-12-20T21:08:16.955Z,100173.14
2018-12-20T21:10:44.440Z,100174.81
2018-12-20T21:13:11.946Z,100166.75
2018-12-20T21:15:39.440Z,100166.75
2018-12-20T21:18:07.604Z,100169.29
2018-12-20T21:20:35.089Z,100159.52
2018-12-20T21:23:02.617Z,100164.20
2018-12-20T21:25:30.104Z,100164.64
2018-12-20T21:27:57.872Z,100168.05
2018-12-20T21:30:25.447Z,100165.95
2018-12-20T21:32:52.912Z,100166.81
2018-12-20T21:35:20.452Z,100162.13
2018-12-20T21:37:48.091Z,100168.48
2018-12-20T21:40:15.560Z,100174.84
2018-12-20T21:42:43.208Z,100175.68
2018-12-20T21:45:10.811Z,100165.87
2018-12-20T21:47:38.297Z,100174.81
2018-12-20T21:50:07.599Z,100175.25
2018-12-20T21:52:35.743Z,100179.90
2018-12-20T21:55:03.788Z,100173.94
2018-12-20T21:57:31.268Z,100174.78
2018-12-20T22:00:01.309Z,100176.05
2018-12-20T22:02:28.537Z,100175.62
2018-12-20T22:04:56.097Z,100167.11
2018-12-20T22:07:23.585Z,100170.90
2018-12-20T22:09:51.123Z,100165.41
2018-12-20T22:12:18.672Z,100167.11
2018-12-20T22:14:46.445Z,100168.35
2018-12-20T22:17:14.091Z,100161.99
2018-12-20T22:19:41.580Z,100167.52
2018-12-20T22:22:09.044Z,100163.66
2018-12-20T22:24:36.549Z,100162.43
2018-12-20T22:27:04.000Z,100166.64
2018-12-20T22:29:31.457Z,100167.48
2018-12-20T22:31:58.956Z,100163.66
2018-12-20T22:34:27.352Z,100161.56
2018-12-20T22:36:55.017Z,100160.72
2018-12-20T22:39:25.727Z,100164.97
2018-12-20T22:41:53.264Z,100160.32
2018-12-20T22:44:20.740Z,100153.95
2018-12-20T22:46:48.304Z,100154.77
2018-12-20T22:49:16.199Z,100156.91
2018-12-20T22:51:44.105Z,100162.43
2018-12-20T22:54:11.651Z,100159.84
2018-12-20T22:56:39.137Z,100165.38
2018-12-20T22:59:06.740Z,100160.75
2018-12-20T23:01:34.255Z,100156.54
2018-12-20T23:04:01.725Z,100153.16
2018-12-20T23:06:29.240Z,100148.52
2018-12-20T23:08:56.994Z,100154.47
2018-12-20T23:11:24.725Z,100147.70
2018-12-20T23:13:52.456Z,100141.78
2018-12-20T23:16:20.573Z,100148.17
2018-12-20T23:18:48.056Z,100142.22
2018-12-20T23:21:15.564Z,100140.98
2018-12-20T23:23:43.065Z,100138.41
2018-12-20T23:26:10.535Z,100131.68
2018-12-20T23:28:38.437Z,100135.86
2018-12-20T23:31:05.972Z,100133.32
2018-12-20T23:33:33.479Z,100134.59
2018-12-20T23:36:01.785Z,100127.80
2018-12-20T23:38:29.315Z,100131.25
2018-12-20T23:40:56.778Z,100127.84
2018-12-20T23:43:24.241Z,100128.27
2018-12-20T23:45:52.092Z,100127.87
2018-12-20T23:48:19.584Z,100131.22
2018-12-20T23:50:47.109Z,100126.13
2018-12-20T23:53:14.615Z,100123.15
2018-12-20T23:55:42.117Z,100123.62
2018-12-20T23:58:09.587Z,100126.97
